ADDS METAR Data INFO
IDs: Format: Raw Decoded Include TAF

Data at: 1406 UTC 12 Dec 2017

KGAG 121353Z AUTO 22007KT 10SM CLR M06/M08 A3044 RMK AO2 SLP324 T10561083
KGAG 121253Z AUTO 00000KT 10SM CLR M04/M08 A3043 RMK AO2 SLP319 T10391078
KGAG 121153Z AUTO 32006KT 10SM CLR M03/M07 A3043 RMK AO2 SLP312 T10331072 10017 21033 58004
KGAG 121053Z AUTO 34006KT 10SM CLR M02/M07 A3043 RMK AO2 SLP308 T10171067
KGAG 120953Z AUTO 33007KT 10SM CLR M02/M08 A3044 RMK AO2 SLP309 T10221078
KGAG 120853Z AUTO 33007KT 10SM CLR M03/M08 A3044 RMK AO2 SLP310 T10281083 51008
KGAG 120753Z AUTO 32005KT 10SM CLR M02/M09 A3043 RMK AO2 SLP306 T10171089
KGAG 120653Z AUTO 35006KT 10SM CLR M01/M08 A3043 RMK AO2 SLP305 T10061083
KGAG 120553Z AUTO 35007KT 10SM CLR 02/M09 A3042 RMK AO2 SLP301 T00171094 10128 20011 402001039 51027
KGAG 120453Z AUTO 33006KT 10SM CLR 03/M09 A3039 RMK AO2 SLP293 T00281094
KGAG 120353Z AUTO 36010KT 10SM CLR 06/M10 A3037 RMK AO2 SLP287 T00561100
KGAG 120253Z AUTO 36009KT 10SM CLR 06/M11 A3033 RMK AO2 SLP280 T00611111 51036
KGAG 120153Z AUTO 31003KT 10SM CLR 05/M12 A3030 RMK AO2 SLP276 T00501122
KGAG 120053Z AUTO 27005KT 10SM CLR 07/M12 A3026 RMK AO2 SLP255 T00721122
KGAG 112353Z AUTO 34008KT 10SM CLR 13/M12 A3022 RMK AO2 SLP237 T01281122 10200 20128 53015
KGAG 112253Z AUTO 35014G22KT 10SM CLR 18/M12 A3020 RMK AO2 SLP227 T01781117
KGAG 112153Z AUTO 35016G22KT 10SM CLR 20/M11 A3018 RMK AO2 SLP217 T02001106
KGAG 112053Z AUTO 36013G21KT 10SM CLR 20/M09 A3018 RMK AO2 SLP215 T02001089 56014
KGAG 111953Z AUTO 36013KT 10SM CLR 20/M08 A3018 RMK AO2 SLP219 T02001078
KGAG 111853Z AUTO 36012KT 10SM CLR 18/M10 A3020 RMK AO2 SLP225 T01831100
KGAG 111753Z AUTO 34011KT 10SM CLR 16/M11 A3022 RMK AO2 SLP234 T01611111 10161 21039 58006
KGAG 111653Z AUTO 35013G20KT 10SM CLR 15/M12 A3024 RMK AO2 SLP240 T01501122
KGAG 111553Z AUTO 27005KT 10SM CLR 07/M12 A3024 RMK AO2 SLP245 T00721117
KGAG 111453Z AUTO 24006KT 10SM CLR 02/M12 A3024 RMK AO2 SLP247 T00221117 53005
KGAG 111353Z AUTO 22004KT 10SM CLR M03/M13 A3023 RMK AO2 SLP250 T10281128
KGAG 111253Z AUTO 24007KT 10SM CLR M02/M13 A3022 RMK AO2 SLP244 T10221128
KGAG 111153Z AUTO 26006KT 10SM CLR 00/M12 A3022 RMK AO2 SLP240 T00001122 10017 21039 58008
KGAG 111053Z AUTO 25006KT 10SM CLR M01/M12 A3023 RMK AO2 SLP238 T10111122
KGAG 110953Z AUTO 25007KT 10SM CLR M01/M13 A3025 RMK AO2 SLP241 T10061128
KGAG 110853Z AUTO 24010KT 10SM CLR M01/M13 A3025 RMK AO2 SLP242 T10061128 56010
KGAG 110753Z AUTO 25005KT 10SM CLR M03/M13 A3025 RMK AO2 SLP244 T10281133
KGAG 110653Z AUTO 26007KT 10SM CLR M01/M13 A3026 RMK AO2 SLP248 T10061128
KGAG 110553Z AUTO 24006KT 10SM CLR M01/M13 A3028 RMK AO2 SLP255 T10111128 10089 21011 402001039 58004
KGAG 110453Z AUTO 24003KT 10SM CLR 01/M13 A3029 RMK AO2 SLP258 T00061133
KGAG 110353Z AUTO 20004KT 10SM CLR 04/M13 A3029 RMK AO2 SLP263 T00391133
KGAG 110253Z AUTO 22004KT 10SM CLR 05/M13 A3029 RMK AO2 SLP268 T00501133 51002